sensor_id;sensor_type;location;lat;lon;timestamp;pressure;altitude;pressure_sealevel;temperature
67509;BMP280;54354;44.724;11.284;2022-12-05T00:02:07;101722.28;;;17.03
67509;BMP280;54354;44.724;11.284;2022-12-05T00:04:33;101722.75;;;17.02
67509;BMP280;54354;44.724;11.284;2022-12-05T00:06:58;101717.81;;;17.00
67509;BMP280;54354;44.724;11.284;2022-12-05T00:09:24;101719.28;;;17.01
67509;BMP280;54354;44.724;11.284;2022-12-05T00:11:49;101719.28;;;17.01
67509;BMP280;54354;44.724;11.284;2022-12-05T00:14:15;101731.53;;;17.02
67509;BMP280;54354;44.724;11.284;2022-12-05T00:16:41;101730.00;;;17.01
67509;BMP280;54354;44.724;11.284;2022-12-05T00:19:09;101736.97;;;16.99
67509;BMP280;54354;44.724;11.284;2022-12-05T00:21:36;101738.47;;;17.00
67509;BMP280;54354;44.724;11.284;2022-12-05T00:24:03;101723.28;;;16.97
67509;BMP280;54354;44.724;11.284;2022-12-05T00:26:29;101730.44;;;17.00
67509;BMP280;54354;44.724;11.284;2022-12-05T00:28:56;101732.69;;;17.01
67509;BMP280;54354;44.724;11.284;2022-12-05T00:31:23;101730.00;;;17.01
67509;BMP280;54354;44.724;11.284;2022-12-05T00:33:50;101737.28;;;17.01
67509;BMP280;54354;44.724;11.284;2022-12-05T00:36:21;101730.44;;;17.00
67509;BMP280;54354;44.724;11.284;2022-12-05T00:38:47;101726.81;;;17.07
67509;BMP280;54354;44.724;11.284;2022-12-05T00:41:16;101726.47;;;17.04
67509;BMP280;54354;44.724;11.284;2022-12-05T00:43:42;101727.56;;;17.07
67509;BMP280;54354;44.724;11.284;2022-12-05T00:46:29;101734.31;;;17.12
67509;BMP280;54354;44.724;11.284;2022-12-05T00:48:57;101733.97;;;17.10
67509;BMP280;54354;44.724;11.284;2022-12-05T00:51:30;101738.69;;;17.06
67509;BMP280;54354;44.724;11.284;2022-12-05T00:53:58;101741.25;;;17.09
67509;BMP280;54354;44.724;11.284;2022-12-05T00:56:25;101745.03;;;17.12
67509;BMP280;54354;44.724;11.284;2022-12-05T00:58:53;101739.25;;;17.13
67509;BMP280;54354;44.724;11.284;2022-12-05T01:01:35;101737.75;;;17.12
67509;BMP280;54354;44.724;11.284;2022-12-05T01:04:05;101737.31;;;17.14
67509;BMP280;54354;44.724;11.284;2022-12-05T01:06:31;101729.94;;;17.18
67509;BMP280;54354;44.724;11.284;2022-12-05T01:08:57;101743.72;;;17.16
67509;BMP280;54354;44.724;11.284;2022-12-05T01:11:23;101732.16;;;17.19
67509;BMP280;54354;44.724;11.284;2022-12-05T01:13:49;101741.59;;;17.24
67509;BMP280;54354;44.724;11.284;2022-12-05T01:16:30;101745.47;;;17.23
67509;BMP280;54354;44.724;11.284;2022-12-05T01:18:58;101737.34;;;17.26
67509;BMP280;54354;44.724;11.284;2022-12-05T01:21:24;101738.41;;;17.29
67509;BMP280;54354;44.724;11.284;2022-12-05T01:23:49;101735.72;;;17.29
67509;BMP280;54354;44.724;11.284;2022-12-05T01:26:17;101738.81;;;17.27
67509;BMP280;54354;44.724;11.284;2022-12-05T01:28:43;101736.81;;;17.31
67509;BMP280;54354;44.724;11.284;2022-12-05T01:31:36;101732.72;;;17.40
67509;BMP280;54354;44.724;11.284;2022-12-05T01:34:03;101725.00;;;17.29
67509;BMP280;54354;44.724;11.284;2022-12-05T01:36:30;101724.06;;;17.23
67509;BMP280;54354;44.724;11.284;2022-12-05T01:38:56;101721.91;;;17.18
67509;BMP280;54354;44.724;11.284;2022-12-05T01:41:33;101723.94;;;17.14
67509;BMP280;54354;44.724;11.284;2022-12-05T01:44:03;101725.84;;;17.13
67509;BMP280;54354;44.724;11.284;2022-12-05T01:46:32;101730.34;;;17.16
67509;BMP280;54354;44.724;11.284;2022-12-05T01:51:38;101724.69;;;17.14
67509;BMP280;54354;44.724;11.284;2022-12-05T01:54:05;101725.09;;;17.13
67509;BMP280;54354;44.724;11.284;2022-12-05T01:56:32;101730.16;;;17.11
67509;BMP280;54354;44.724;11.284;2022-12-05T01:58:59;101726.41;;;17.08
67509;BMP280;54354;44.724;11.284;2022-12-05T02:01:25;101728.22;;;17.11
67509;BMP280;54354;44.724;11.284;2022-12-05T02:03:51;101718.78;;;17.07
67509;BMP280;54354;44.724;11.284;2022-12-05T02:06:19;101724.88;;;17.07
67509;BMP280;54354;44.724;11.284;2022-12-05T02:08:45;101728.22;;;17.11
67509;BMP280;54354;44.724;11.284;2022-12-05T02:11:11;101744.59;;;17.13
67509;BMP280;54354;44.724;11.284;2022-12-05T02:27:19;101731.84;;;17.30
67509;BMP280;54354;44.724;11.284;2022-12-05T02:35:36;101729.75;;;17.38
67509;BMP280;54354;44.724;11.284;2022-12-05T02:43:31;101708.19;;;17.28
67509;BMP280;54354;44.724;11.284;2022-12-05T02:46:03;101711.63;;;17.29
67509;BMP280;54354;44.724;11.284;2022-12-05T02:48:32;101702.84;;;17.28
67509;BMP280;54354;44.724;11.284;2022-12-05T02:51:00;101718.91;;;17.28
67509;BMP280;54354;44.724;11.284;2022-12-05T02:53:29;101719.09;;;17.34
67509;BMP280;54354;44.724;11.284;2022-12-05T02:55:56;101723.53;;;17.41
67509;BMP280;54354;44.724;11.284;2022-12-05T02:58:37;101731.88;;;17.43
67509;BMP280;54354;44.724;11.284;2022-12-05T03:01:05;101730.47;;;17.51
67509;BMP280;54354;44.724;11.284;2022-12-05T03:03:32;101722.88;;;17.49
67509;BMP280;54354;44.724;11.284;2022-12-05T03:06:11;101725.88;;;17.51
67509;BMP280;54354;44.724;11.284;2022-12-05T03:08:46;101736.28;;;17.49
67509;BMP280;54354;44.724;11.284;2022-12-05T03:11:13;101723.94;;;17.52
67509;BMP280;54354;44.724;11.284;2022-12-05T03:13:54;101722.66;;;17.56
67509;BMP280;54354;44.724;11.284;2022-12-05T03:18:57;101713.88;;;17.56
67509;BMP280;54354;44.724;11.284;2022-12-05T03:21:54;101723.41;;;17.57
67509;BMP280;54354;44.724;11.284;2022-12-05T03:24:18;101723.63;;;17.63
67509;BMP280;54354;44.724;11.284;2022-12-05T03:26:47;101729.28;;;17.65
67509;BMP280;54354;44.724;11.284;2022-12-05T03:29:38;101722.53;;;17.73
67509;BMP280;54354;44.724;11.284;2022-12-05T03:37:14;101710.53;;;17.65
67509;BMP280;54354;44.724;11.284;2022-12-05T03:39:44;101710.84;;;17.67
67509;BMP280;54354;44.724;11.284;2022-12-05T03:42:13;101717.28;;;17.69
67509;BMP280;54354;44.724;11.284;2022-12-05T03:47:26;101708.47;;;17.69
67509;BMP280;54354;44.724;11.284;2022-12-05T03:49:59;101703.78;;;17.60
67509;BMP280;54354;44.724;11.284;2022-12-05T03:52:31;101703.78;;;17.60
67509;BMP280;54354;44.724;11.284;2022-12-05T03:55:04;101703.91;;;17.56
67509;BMP280;54354;44.724;11.284;2022-12-05T03:57:43;101703.56;;;17.54
67509;BMP280;54354;44.724;11.284;2022-12-05T04:00:14;101702.06;;;17.53
67509;BMP280;54354;44.724;11.284;2022-12-05T04:02:50;101698.78;;;17.49
67509;BMP280;54354;44.724;11.284;2022-12-05T04:07:48;101697.59;;;17.50
67509;BMP280;54354;44.724;11.284;2022-12-05T04:10:19;101696.94;;;17.46
67509;BMP280;54354;44.724;11.284;2022-12-05T04:12:48;101696.19;;;17.46
67509;BMP280;54354;44.724;11.284;2022-12-05T04:15:24;101706.59;;;17.44
67509;BMP280;54354;44.724;11.284;2022-12-05T04:17:59;101712.59;;;17.48
67509;BMP280;54354;44.724;11.284;2022-12-05T04:20:35;101719.00;;;17.50
67509;BMP280;54354;44.724;11.284;2022-12-05T04:23:20;101711.59;;;17.54
67509;BMP280;54354;44.724;11.284;2022-12-05T04:26:02;101696.72;;;17.53
67509;BMP280;54354;44.724;11.284;2022-12-05T04:31:05;101708.09;;;17.45
67509;BMP280;54354;44.724;11.284;2022-12-05T04:36:16;101716.13;;;17.45
67509;BMP280;54354;44.724;11.284;2022-12-05T04:38:54;101713.44;;;17.45
67509;BMP280;54354;44.724;11.284;2022-12-05T04:41:24;101704.66;;;17.44
67509;BMP280;54354;44.724;11.284;2022-12-05T04:43:53;101701.66;;;17.42
67509;BMP280;54354;44.724;11.284;2022-12-05T04:46:20;101701.53;;;17.46
67509;BMP280;54354;44.724;11.284;2022-12-05T04:48:50;101714.19;;;17.45
67509;BMP280;54354;44.724;11.284;2022-12-05T04:51:21;101712.25;;;17.46
67509;BMP280;54354;44.724;11.284;2022-12-05T04:53:55;101713.13;;;17.43
67509;BMP280;54354;44.724;11.284;2022-12-05T04:56:26;101721.47;;;17.45
67509;BMP280;54354;44.724;11.284;2022-12-05T04:58:52;101720.09;;;17.53
67509;BMP280;54354;44.724;11.284;2022-12-05T05:01:22;101717.09;;;17.51
67509;BMP280;54354;44.724;11.284;2022-12-05T05:03:59;101716.97;;;17.54
67509;BMP280;54354;44.724;11.284;2022-12-05T05:06:26;101723.72;;;17.59
67509;BMP280;54354;44.724;11.284;2022-12-05T05:08:54;101703.91;;;17.56
67509;BMP280;54354;44.724;11.284;2022-12-05T05:11:26;101687.28;;;17.49
67509;BMP280;54354;44.724;11.284;2022-12-05T05:13:52;101696.63;;;17.44
67509;BMP280;54354;44.724;11.284;2022-12-05T05:16:23;101694.16;;;17.37
67509;BMP280;54354;44.724;11.284;2022-12-05T05:18:50;101695.00;;;17.34
67509;BMP280;54354;44.724;11.284;2022-12-05T05:21:19;101700.47;;;17.30
67509;BMP280;54354;44.724;11.284;2022-12-05T05:23:46;101709.06;;;17.38
67509;BMP280;54354;44.724;11.284;2022-12-05T05:26:11;101706.41;;;17.38
67509;BMP280;54354;44.724;11.284;2022-12-05T05:28:37;101707.88;;;17.39
67509;BMP280;54354;44.724;11.284;2022-12-05T05:31:04;101704.00;;;17.40
67509;BMP280;54354;44.724;11.284;2022-12-05T05:33:30;101700.91;;;17.42
67509;BMP280;54354;44.724;11.284;2022-12-05T05:35:56;101703.91;;;17.44
67509;BMP280;54354;44.724;11.284;2022-12-05T05:38:22;101722.22;;;17.45
67509;BMP280;54354;44.724;11.284;2022-12-05T05:40:48;101724.78;;;17.49
67509;BMP280;54354;44.724;11.284;2022-12-05T05:43:13;101724.78;;;17.49
67509;BMP280;54354;44.724;11.284;2022-12-05T05:45:39;101734.03;;;17.48
67509;BMP280;54354;44.724;11.284;2022-12-05T05:48:04;101736.34;;;17.46
67509;BMP280;54354;44.724;11.284;2022-12-05T05:50:30;101739.91;;;17.43
67509;BMP280;54354;44.724;11.284;2022-12-05T05:52:55;101746.44;;;17.42
67509;BMP280;54354;44.724;11.284;2022-12-05T05:55:21;101746.56;;;17.38
67509;BMP280;54354;44.724;11.284;2022-12-05T05:57:46;101748.38;;;17.41
67509;BMP280;54354;44.724;11.284;2022-12-05T06:00:13;101744.94;;;17.41
67509;BMP280;54354;44.724;11.284;2022-12-05T06:02:38;101744.94;;;17.41
67509;BMP280;54354;44.724;11.284;2022-12-05T06:05:04;101748.38;;;17.41
67509;BMP280;54354;44.724;11.284;2022-12-05T06:07:30;101740.66;;;17.43
67509;BMP280;54354;44.724;11.284;2022-12-05T06:09:55;101741.84;;;17.42
67509;BMP280;54354;44.724;11.284;2022-12-05T06:12:21;101742.91;;;17.45
67509;BMP280;54354;44.724;11.284;2022-12-05T06:14:47;101750.94;;;17.45
67509;BMP280;54354;44.724;11.284;2022-12-05T06:17:13;101752.03;;;17.47
67509;BMP280;54354;44.724;11.284;2022-12-05T06:19:39;101753.09;;;17.50
67509;BMP280;54354;44.724;11.284;2022-12-05T06:22:04;101751.56;;;17.49
67509;BMP280;54354;44.724;11.284;2022-12-05T06:24:30;101752.34;;;17.49
67509;BMP280;54354;44.724;11.284;2022-12-05T06:26:55;101753.09;;;17.50
67509;BMP280;54354;44.724;11.284;2022-12-05T06:29:21;101752.66;;;17.51
67509;BMP280;54354;44.724;11.284;2022-12-05T06:31:46;101761.44;;;17.52
67509;BMP280;54354;44.724;11.284;2022-12-05T06:34:12;101762.63;;;17.51
67509;BMP280;54354;44.724;11.284;2022-12-05T06:36:37;101760.81;;;17.48
67509;BMP280;54354;44.724;11.284;2022-12-05T06:39:03;101760.81;;;17.48
67509;BMP280;54354;44.724;11.284;2022-12-05T06:41:29;101764.66;;;17.47
67509;BMP280;54354;44.724;11.284;2022-12-05T06:43:56;101767.00;;;17.45
67509;BMP280;54354;44.724;11.284;2022-12-05T06:46:23;101765.06;;;17.45
67509;BMP280;54354;44.724;11.284;2022-12-05T06:48:54;101755.97;;;17.43
67509;BMP280;54354;44.724;11.284;2022-12-05T06:51:20;101763.78;;;17.50
67509;BMP280;54354;44.724;11.284;2022-12-05T06:53:45;101769.16;;;17.50
67509;BMP280;54354;44.724;11.284;2022-12-05T06:56:14;101763.78;;;17.50
67509;BMP280;54354;44.724;11.284;2022-12-05T06:58:41;101765.28;;;17.51
67509;BMP280;54354;44.724;11.284;2022-12-05T07:01:17;101754.03;;;17.43
67509;BMP280;54354;44.724;11.284;2022-12-05T07:04:03;101762.50;;;17.42
67509;BMP280;54354;44.724;11.284;2022-12-05T07:06:29;101776.00;;;17.38
67509;BMP280;54354;44.724;11.284;2022-12-05T07:08:55;101787.13;;;17.37
67509;BMP280;54354;44.724;11.284;2022-12-05T07:11:21;101794.84;;;17.35
67509;BMP280;54354;44.724;11.284;2022-12-05T07:13:46;101797.44;;;17.38
67509;BMP280;54354;44.724;11.284;2022-12-05T07:16:12;101803.06;;;17.40
67509;BMP280;54354;44.724;11.284;2022-12-05T07:18:37;101809.84;;;17.45
67509;BMP280;54354;44.724;11.284;2022-12-05T07:21:09;101809.53;;;17.43
67509;BMP280;54354;44.724;11.284;2022-12-05T07:23:35;101805.97;;;17.46
67509;BMP280;54354;44.724;11.284;2022-12-05T07:26:05;101796.22;;;17.39
67509;BMP280;54354;44.724;11.284;2022-12-05T07:28:31;101796.38;;;17.48
67509;BMP280;54354;44.724;11.284;2022-12-05T07:31:01;101793.78;;;17.45
67509;BMP280;54354;44.724;11.284;2022-12-05T07:33:28;101794.66;;;17.93
67509;BMP280;54354;44.724;11.284;2022-12-05T07:35:59;101778.78;;;17.60
67509;BMP280;54354;44.724;11.284;2022-12-05T07:38:24;101785.00;;;17.57
67509;BMP280;54354;44.724;11.284;2022-12-05T07:40:50;101785.84;;;17.54
67509;BMP280;54354;44.724;11.284;2022-12-05T07:43:15;101788.66;;;17.50
67509;BMP280;54354;44.724;11.284;2022-12-05T07:45:41;101791.31;;;17.50
67509;BMP280;54354;44.724;11.284;2022-12-05T07:48:06;101791.00;;;17.48
67509;BMP280;54354;44.724;11.284;2022-12-05T07:50:32;101789.41;;;17.51
67509;BMP280;54354;44.724;11.284;2022-12-05T07:52:57;101789.28;;;17.54
67509;BMP280;54354;44.724;11.284;2022-12-05T07:55:23;101796.91;;;17.56
67509;BMP280;54354;44.724;11.284;2022-12-05T07:57:48;101796.91;;;17.56
67509;BMP280;54354;44.724;11.284;2022-12-05T08:00:14;101803.00;;;17.56
67509;BMP280;54354;44.724;11.284;2022-12-05T08:02:40;101795.28;;;17.58
67509;BMP280;54354;44.724;11.284;2022-12-05T08:05:05;101803.97;;;17.63
67509;BMP280;54354;44.724;11.284;2022-12-05T08:07:31;101809.22;;;17.66
67509;BMP280;54354;44.724;11.284;2022-12-05T08:09:56;101819.81;;;17.70
67509;BMP280;54354;44.724;11.284;2022-12-05T08:12:22;101810.94;;;17.73
67509;BMP280;54354;44.724;11.284;2022-12-05T08:14:47;101809.31;;;17.75
67509;BMP280;54354;44.724;11.284;2022-12-05T08:17:12;101816.09;;;17.80
67509;BMP280;54354;44.724;11.284;2022-12-05T08:19:38;101811.03;;;17.82
67509;BMP280;54354;44.724;11.284;2022-12-05T08:22:03;101819.41;;;17.84
67509;BMP280;54354;44.724;11.284;2022-12-05T08:24:29;101817.19;;;17.82
67509;BMP280;54354;44.724;11.284;2022-12-05T08:26:54;101820.13;;;17.84
67509;BMP280;54354;44.724;11.284;2022-12-05T08:29:20;101809.53;;;17.81
67509;BMP280;54354;44.724;11.284;2022-12-05T08:31:48;101806.25;;;17.77
67509;BMP280;54354;44.724;11.284;2022-12-05T08:34:16;101801.16;;;17.79
67509;BMP280;54354;44.724;11.284;2022-12-05T08:36:42;101804.06;;;17.84
67509;BMP280;54354;44.724;11.284;2022-12-05T08:39:10;101794.09;;;17.85
67509;BMP280;54354;44.724;11.284;2022-12-05T08:41:39;101787.22;;;17.84
67509;BMP280;54354;44.724;11.284;2022-12-05T08:44:06;101802.56;;;17.83
67509;BMP280;54354;44.724;11.284;2022-12-05T08:46:36;101809.84;;;17.83
67509;BMP280;54354;44.724;11.284;2022-12-05T08:49:03;101810.94;;;17.85
67509;BMP280;54354;44.724;11.284;2022-12-05T08:51:28;101814.66;;;17.88
67509;BMP280;54354;44.724;11.284;2022-12-05T08:53:54;101815.00;;;17.90
67509;BMP280;54354;44.724;11.284;2022-12-05T08:56:21;101811.56;;;17.90
67509;BMP280;54354;44.724;11.284;2022-12-05T08:58:47;101805.47;;;17.89
67509;BMP280;54354;44.724;11.284;2022-12-05T09:01:18;101808.25;;;17.85
67509;BMP280;54354;44.724;11.284;2022-12-05T09:03:44;101812.75;;;17.88
67509;BMP280;54354;44.724;11.284;2022-12-05T09:06:18;101818.97;;;17.85
67509;BMP280;54354;44.724;11.284;2022-12-05T09:08:44;101822.63;;;17.92
67509;BMP280;54354;44.724;11.284;2022-12-05T09:11:21;101816.53;;;17.91
67509;BMP280;54354;44.724;11.284;2022-12-05T09:13:49;101812.19;;;17.94
67509;BMP280;54354;44.724;11.284;2022-12-05T09:16:20;101816.41;;;17.95
67509;BMP280;54354;44.724;11.284;2022-12-05T09:18:47;101820.91;;;17.98
67509;BMP280;54354;44.724;11.284;2022-12-05T09:21:18;101817.50;;;17.97
67509;BMP280;54354;44.724;11.284;2022-12-05T09:23:44;101817.66;;;18.03
67509;BMP280;54354;44.724;11.284;2022-12-05T09:26:14;101814.97;;;18.03
67509;BMP280;54354;44.724;11.284;2022-12-05T09:28:40;101812.09;;;18.10
67509;BMP280;54354;44.724;11.284;2022-12-05T09:31:12;101814.56;;;18.04
67509;BMP280;54354;44.724;11.284;2022-12-05T09:33:39;101814.97;;;18.03
67509;BMP280;54354;44.724;11.284;2022-12-05T09:36:07;101804.09;;;17.97
67509;BMP280;54354;44.724;11.284;2022-12-05T09:38:33;101802.88;;;17.98
67509;BMP280;54354;44.724;11.284;2022-12-05T09:46:59;101816.38;;;18.07
67509;BMP280;54354;44.724;11.284;2022-12-05T09:49:26;101815.53;;;18.10
67509;BMP280;54354;44.724;11.284;2022-12-05T09:51:53;101801.03;;;18.08
67509;BMP280;54354;44.724;11.284;2022-12-05T09:54:20;101793.88;;;18.05
67509;BMP280;54354;44.724;11.284;2022-12-05T09:56:48;101790.97;;;17.99
67509;BMP280;54354;44.724;11.284;2022-12-05T09:59:15;101783.69;;;18.00
67509;BMP280;54354;44.724;11.284;2022-12-05T10:02:17;101797.19;;;18.09
67509;BMP280;54354;44.724;11.284;2022-12-05T10:04:54;101790.44;;;18.04
67509;BMP280;54354;44.724;11.284;2022-12-05T10:10:14;101778.84;;;18.07
67509;BMP280;54354;44.724;11.284;2022-12-05T10:13:07;101775.69;;;18.22
67509;BMP280;54354;44.724;11.284;2022-12-05T10:15:38;101770.47;;;18.18
67509;BMP280;54354;44.724;11.284;2022-12-05T10:18:22;101772.16;;;18.25
67509;BMP280;54354;44.724;11.284;2022-12-05T10:20:55;101762.28;;;18.22
67509;BMP280;54354;44.724;11.284;2022-12-05T10:25:51;101751.88;;;18.24
67509;BMP280;54354;44.724;11.284;2022-12-05T10:28:41;101744.47;;;18.28
67509;BMP280;54354;44.724;11.284;2022-12-05T10:31:12;101748.88;;;18.22
67509;BMP280;54354;44.724;11.284;2022-12-05T10:33:56;101746.97;;;18.22
67509;BMP280;54354;44.724;11.284;2022-12-05T10:36:24;101741.16;;;18.24
67509;BMP280;54354;44.724;11.284;2022-12-05T10:38:51;101739.25;;;18.24
67509;BMP280;54354;44.724;11.284;2022-12-05T10:41:17;101741.34;;;18.29
67509;BMP280;54354;44.724;11.284;2022-12-05T10:43:43;101735.25;;;18.29
67509;BMP280;54354;44.724;11.284;2022-12-05T10:46:13;101731.41;;;18.30
67509;BMP280;54354;44.724;11.284;2022-12-05T10:48:40;101728.72;;;18.30
67509;BMP280;54354;44.724;11.284;2022-12-05T10:51:12;101715.53;;;18.23
67509;BMP280;54354;44.724;11.284;2022-12-05T10:53:41;101720.47;;;18.24
67509;BMP280;54354;44.724;11.284;2022-12-05T10:59:05;101715.38;;;18.39
67509;BMP280;54354;44.724;11.284;2022-12-05T11:01:31;101719.41;;;18.43
67509;BMP280;54354;44.724;11.284;2022-12-05T11:03:58;101718.34;;;18.41
67509;BMP280;54354;44.724;11.284;2022-12-05T11:06:27;101708.34;;;18.41
67509;BMP280;54354;44.724;11.284;2022-12-05T11:09:28;101711.38;;;18.43
67509;BMP280;54354;44.724;11.284;2022-12-05T11:14:33;101704.81;;;18.44
67509;BMP280;54354;44.724;11.284;2022-12-05T11:17:03;101706.56;;;18.38
67509;BMP280;54354;44.724;11.284;2022-12-05T11:19:38;101698.84;;;18.40
67509;BMP280;54354;44.724;11.284;2022-12-05T11:22:04;101696.34;;;18.46
67509;BMP280;54354;44.724;11.284;2022-12-05T11:24:37;101696.22;;;18.50
67509;BMP280;54354;44.724;11.284;2022-12-05T11:29:42;101691.59;;;18.50
67509;BMP280;54354;44.724;11.284;2022-12-05T11:32:22;101693.22;;;18.48
67509;BMP280;54354;44.724;11.284;2022-12-05T11:34:52;101680.56;;;18.48
67509;BMP280;54354;44.724;11.284;2022-12-05T11:37:27;101669.66;;;18.42
67509;BMP280;54354;44.724;11.284;2022-12-05T11:39:53;101674.88;;;18.46
67509;BMP280;54354;44.724;11.284;2022-12-05T11:42:44;101667.91;;;18.49
67509;BMP280;54354;44.724;11.284;2022-12-05T11:48:21;101658.84;;;18.55
67509;BMP280;54354;44.724;11.284;2022-12-05T11:51:09;101663.47;;;18.55
67509;BMP280;54354;44.724;11.284;2022-12-05T11:54:07;101665.56;;;18.60
67509;BMP280;54354;44.724;11.284;2022-12-05T11:56:48;101645.13;;;18.53
67509;BMP280;54354;44.724;11.284;2022-12-05T12:05:48;101651.06;;;18.48
67509;BMP280;54354;44.724;11.284;2022-12-05T12:14:00;101647.75;;;18.44
67509;BMP280;54354;44.724;11.284;2022-12-05T12:30:11;101632.72;;;18.47
67509;BMP280;54354;44.724;11.284;2022-12-05T12:32:45;101635.38;;;18.47
67509;BMP280;54354;44.724;11.284;2022-12-05T12:35:31;101622.72;;;18.47
67509;BMP280;54354;44.724;11.284;2022-12-05T12:38:07;101614.44;;;18.54
67509;BMP280;54354;44.724;11.284;2022-12-05T12:40:49;101614.59;;;18.60
67509;BMP280;54354;44.724;11.284;2022-12-05T12:51:20;101612.56;;;19.13
67509;BMP280;54354;44.724;11.284;2022-12-05T12:56:54;101618.00;;;18.82
67509;BMP280;54354;44.724;11.284;2022-12-05T12:59:37;101612.59;;;18.73
67509;BMP280;54354;44.724;11.284;2022-12-05T13:04:46;101607.91;;;18.64
67509;BMP280;54354;44.724;11.284;2022-12-05T13:07:17;101597.06;;;18.68
67509;BMP280;54354;44.724;11.284;2022-12-05T13:09:49;101598.81;;;18.62
67509;BMP280;54354;44.724;11.284;2022-12-05T13:12:21;101606.44;;;18.63
67509;BMP280;54354;44.724;11.284;2022-12-05T13:14:53;101603.63;;;18.67
67509;BMP280;54354;44.724;11.284;2022-12-05T13:17:21;101605.41;;;18.70
67509;BMP280;54354;44.724;11.284;2022-12-05T13:19:49;101603.63;;;18.67
67509;BMP280;54354;44.724;11.284;2022-12-05T13:22:17;101602.88;;;18.66
67509;BMP280;54354;44.724;11.284;2022-12-05T13:24:44;101608.22;;;18.66
67509;BMP280;54354;44.724;11.284;2022-12-05T13:27:18;101605.94;;;18.56
67509;BMP280;54354;44.724;11.284;2022-12-05T13:30:00;101591.78;;;18.55
67509;BMP280;54354;44.724;11.284;2022-12-05T13:32:36;101577.00;;;18.51
67509;BMP280;54354;44.724;11.284;2022-12-05T13:35:19;101579.06;;;18.47
67509;BMP280;54354;44.724;11.284;2022-12-05T13:38:03;101596.66;;;18.48
67509;BMP280;54354;44.724;11.284;2022-12-05T13:40:51;101591.13;;;18.42
67509;BMP280;54354;44.724;11.284;2022-12-05T13:43:49;101593.56;;;18.49
67509;BMP280;54354;44.724;11.284;2022-12-05T13:46:23;101589.97;;;18.52
67509;BMP280;54354;44.724;11.284;2022-12-05T13:48:58;101579.44;;;18.58
67509;BMP280;54354;44.724;11.284;2022-12-05T13:51:32;101581.22;;;18.61
67509;BMP280;54354;44.724;11.284;2022-12-05T13:54:04;101566.63;;;18.62
67509;BMP280;54354;44.724;11.284;2022-12-05T14:03:01;101555.50;;;18.73
67509;BMP280;54354;44.724;11.284;2022-12-05T14:05:46;101569.13;;;18.56
67509;BMP280;54354;44.724;11.284;2022-12-05T14:15:49;101573.69;;;18.47
67509;BMP280;54354;44.724;11.284;2022-12-05T14:23:48;101581.94;;;18.52
67509;BMP280;54354;44.724;11.284;2022-12-05T14:32:10;101578.34;;;18.55
67509;BMP280;54354;44.724;11.284;2022-12-05T14:34:51;101584.75;;;18.49
67509;BMP280;54354;44.724;11.284;2022-12-05T14:39:52;101594.41;;;18.46
67509;BMP280;54354;44.724;11.284;2022-12-05T14:42:36;101598.41;;;18.41
67509;BMP280;54354;44.724;11.284;2022-12-05T14:47:59;101578.47;;;18.42
67509;BMP280;54354;44.724;11.284;2022-12-05T14:50:46;101579.41;;;18.49
67509;BMP280;54354;44.724;11.284;2022-12-05T14:53:26;101565.81;;;18.43
67509;BMP280;54354;44.724;11.284;2022-12-05T15:07:19;101568.78;;;18.36
67509;BMP280;54354;44.724;11.284;2022-12-05T15:17:47;101584.94;;;18.32
67509;BMP280;54354;44.724;11.284;2022-12-05T15:20:18;101578.97;;;18.28
67509;BMP280;54354;44.724;11.284;2022-12-05T15:22:44;101573.19;;;18.70
67509;BMP280;54354;44.724;11.284;2022-12-05T15:25:19;101576.19;;;18.41
67509;BMP280;54354;44.724;11.284;2022-12-05T15:27:56;101571.13;;;18.34
67509;BMP280;54354;44.724;11.284;2022-12-05T15:30:22;101571.13;;;18.34
67509;BMP280;54354;44.724;11.284;2022-12-05T15:32:48;101571.28;;;18.30
67509;BMP280;54354;44.724;11.284;2022-12-05T15:35:13;101570.94;;;18.28
67509;BMP280;54354;44.724;11.284;2022-12-05T15:37:49;101580.63;;;18.26
67509;BMP280;54354;44.724;11.284;2022-12-05T15:40:20;101591.34;;;18.26
67509;BMP280;54354;44.724;11.284;2022-12-05T15:45:20;101606.94;;;18.18
67509;BMP280;54354;44.724;11.284;2022-12-05T15:47:49;101618.81;;;18.17
67509;BMP280;54354;44.724;11.284;2022-12-05T15:50:22;101609.97;;;18.07
67509;BMP280;54354;44.724;11.284;2022-12-05T15:55:48;101595.78;;;17.98
67509;BMP280;54354;44.724;11.284;2022-12-05T15:58:37;101610.94;;;17.92
67509;BMP280;54354;44.724;11.284;2022-12-05T16:01:11;101606.41;;;17.88
67509;BMP280;54354;44.724;11.284;2022-12-05T16:03:48;101617.25;;;17.85
67509;BMP280;54354;44.724;11.284;2022-12-05T16:06:39;101616.84;;;17.86
67509;BMP280;54354;44.724;11.284;2022-12-05T16:09:08;101613.75;;;17.75
67509;BMP280;54354;44.724;11.284;2022-12-05T16:11:37;101617.31;;;17.72
67509;BMP280;54354;44.724;11.284;2022-12-05T16:14:05;101596.84;;;17.66
67509;BMP280;54354;44.724;11.284;2022-12-05T16:16:34;101582.41;;;17.63
67509;BMP280;54354;44.724;11.284;2022-12-05T16:19:15;101594.38;;;17.71
67509;BMP280;54354;44.724;11.284;2022-12-05T16:21:45;101591.25;;;17.73
67509;BMP280;54354;44.724;11.284;2022-12-05T16:26:42;101590.44;;;17.85
67509;BMP280;54354;44.724;11.284;2022-12-05T16:29:30;101581.78;;;17.81
67509;BMP280;54354;44.724;11.284;2022-12-05T16:31:57;101598.41;;;17.76
67509;BMP280;54354;44.724;11.284;2022-12-05T16:34:24;101604.34;;;17.71
67509;BMP280;54354;44.724;11.284;2022-12-05T16:36:51;101602.63;;;17.64
67509;BMP280;54354;44.724;11.284;2022-12-05T16:39:18;101603.09;;;17.63
67509;BMP280;54354;44.724;11.284;2022-12-05T16:41:44;101608.09;;;17.60
67509;BMP280;54354;44.724;11.284;2022-12-05T16:47:02;101637.56;;;17.60
67509;BMP280;54354;44.724;11.284;2022-12-05T16:54:27;101643.06;;;17.57
67509;BMP280;54354;44.724;11.284;2022-12-05T16:56:53;101649.72;;;17.52